Pagina principale
METAR-TAF:

METAR-TAF

Aeroporti :

Luni

Sarzana, Italia

latitudine: 44-05N, longitudine: 009-59E, altezza: 9 m

Osservazione

Il bollettino è stato emesso 9 ore e 37 minuti fa, alle 09:55 UTC
Vento 6 kt da sud
Temperature 20°C
Umidità 68%
Pressione 1019 hPa
Visibilità 10 km o più
Nubi sparse ad un'altezza di 3000 ft

METAR: LIQW 240955Z 17006KT 9999 SCT030 20/14 Q1019 RMK SCT VIS MIN 9999 WIND THR14 /////KT BLU

Ora: 21:32 (19:32 UTC)

Previsione

Il bollettino è stato emesso 11 ore e 32 minuti fa, alle 08:00 UTC
Previsione valida dal 24 alle 09 UTC al 24 alle 18 UTC
Vento 5 kt da sud/sud-ovest
Visibilità 10 km o più
Nuvoloso ad un'altezza di 2500 ft
Temporaneamente
dal 24 alle 09 UTC al 24 alle 12 UTC
Visibilità: 6000 m
pioggia,

TAF: LIQW 240800Z 2409/2418 20005KT 9999 BKN025 TEMPO 2409/2412 6000 RA

Osservazioni e previsioni meteorologiche di più di 4000 aeroporti (messaggi METAR e TAF).

Le stazioni disponibili sono rappresentate dai dischi gialli e rossi sulla carta.

Puntare il mouse per vedere il nome della stazione.

Clicca sopra per visualizzare le osservazioni e previsioni meteorologiche.

Per cambiare la mappa : fare clic sui pulsanti verdi con una croce nera per ingrandire, il pulsante verde con un trattino per diminuire, o sulla freccia verde per le mappe adiacenti.


METAR-TAF: